sensor_id;sensor_type;location;lat;lon;timestamp;temperature;humidity
41644;DHT22;44236;48.098;11.582;2023-08-06T05:35:00;21.70;64.50
41644;DHT22;44236;48.098;11.582;2023-08-06T05:37:26;21.60;64.60
41644;DHT22;44236;48.098;11.582;2023-08-06T05:39:51;21.70;64.50
41644;DHT22;44236;48.098;11.582;2023-08-06T05:42:17;21.70;64.60
41644;DHT22;44236;48.098;11.582;2023-08-06T05:44:43;21.60;63.10
41644;DHT22;44236;48.098;11.582;2023-08-06T05:47:08;21.30;61.80
41644;DHT22;44236;48.098;11.582;2023-08-06T05:49:34;21.20;63.10
41644;DHT22;44236;48.098;11.582;2023-08-06T05:51:59;21.30;63.70
41644;DHT22;44236;48.098;11.582;2023-08-06T05:54:25;21.30;63.50
41644;DHT22;44236;48.098;11.582;2023-08-06T05:56:51;21.40;63.50
41644;DHT22;44236;48.098;11.582;2023-08-06T05:59:16;21.40;63.70
41644;DHT22;44236;48.098;11.582;2023-08-06T06:01:42;21.50;63.70
41644;DHT22;44236;48.098;11.582;2023-08-06T06:04:07;21.50;63.70
41644;DHT22;44236;48.098;11.582;2023-08-06T06:06:33;21.50;63.80
41644;DHT22;44236;48.098;11.582;2023-08-06T06:08:58;21.50;63.80
41644;DHT22;44236;48.098;11.582;2023-08-06T06:11:24;21.50;63.70
41644;DHT22;44236;48.098;11.582;2023-08-06T06:13:51;21.50;63.50
41644;DHT22;44236;48.098;11.582;2023-08-06T06:16:16;21.50;63.80
41644;DHT22;44236;48.098;11.582;2023-08-06T06:18:42;21.50;63.90
41644;DHT22;44236;48.098;11.582;2023-08-06T06:21:07;21.60;63.90
41644;DHT22;44236;48.098;11.582;2023-08-06T06:23:33;21.60;64.00
41644;DHT22;44236;48.098;11.582;2023-08-06T06:25:59;21.60;63.90
41644;DHT22;44236;48.098;11.582;2023-08-06T06:28:25;21.60;63.80
41644;DHT22;44236;48.098;11.582;2023-08-06T06:30:51;21.60;63.80
41644;DHT22;44236;48.098;11.582;2023-08-06T06:33:17;21.60;63.90
41644;DHT22;44236;48.098;11.582;2023-08-06T06:35:42;21.50;63.80
41644;DHT22;44236;48.098;11.582;2023-08-06T06:38:08;21.50;63.80
41644;DHT22;44236;48.098;11.582;2023-08-06T06:40:34;21.50;63.80
41644;DHT22;44236;48.098;11.582;2023-08-06T06:42:59;21.50;63.70
41644;DHT22;44236;48.098;11.582;2023-08-06T06:45:25;21.60;63.70
41644;DHT22;44236;48.098;11.582;2023-08-06T06:47:50;21.60;63.60
41644;DHT22;44236;48.098;11.582;2023-08-06T06:50:16;21.60;63.50
41644;DHT22;44236;48.098;11.582;2023-08-06T06:52:42;21.60;63.50
41644;DHT22;44236;48.098;11.582;2023-08-06T06:55:07;21.60;63.40
41644;DHT22;44236;48.098;11.582;2023-08-06T06:57:33;21.50;63.30
41644;DHT22;44236;48.098;11.582;2023-08-06T06:59:59;21.60;63.20
41644;DHT22;44236;48.098;11.582;2023-08-06T07:02:24;21.60;63.30
41644;DHT22;44236;48.098;11.582;2023-08-06T07:04:50;21.60;63.30
41644;DHT22;44236;48.098;11.582;2023-08-06T07:07:16;21.60;63.20
41644;DHT22;44236;48.098;11.582;2023-08-06T07:09:41;21.50;61.20
41644;DHT22;44236;48.098;11.582;2023-08-06T07:12:07;21.40;61.50
41644;DHT22;44236;48.098;11.582;2023-08-06T07:14:33;21.40;61.70
41644;DHT22;44236;48.098;11.582;2023-08-06T07:16:58;21.40;61.80
41644;DHT22;44236;48.098;11.582;2023-08-06T07:19:24;21.40;60.70
41644;DHT22;44236;48.098;11.582;2023-08-06T07:21:50;21.40;60.60
41644;DHT22;44236;48.098;11.582;2023-08-06T07:24:16;21.40;59.60
41644;DHT22;44236;48.098;11.582;2023-08-06T07:26:41;21.30;59.80
41644;DHT22;44236;48.098;11.582;2023-08-06T07:29:07;21.30;60.30
41644;DHT22;44236;48.098;11.582;2023-08-06T07:31:32;21.30;61.30
41644;DHT22;44236;48.098;11.582;2023-08-06T07:33:58;21.40;61.60
41644;DHT22;44236;48.098;11.582;2023-08-06T07:36:24;21.40;61.40
41644;DHT22;44236;48.098;11.582;2023-08-06T07:38:49;21.40;61.40
41644;DHT22;44236;48.098;11.582;2023-08-06T07:41:21;21.50;61.50
41644;DHT22;44236;48.098;11.582;2023-08-06T07:43:47;21.50;61.50
41644;DHT22;44236;48.098;11.582;2023-08-06T07:46:12;21.50;61.60
41644;DHT22;44236;48.098;11.582;2023-08-06T07:48:39;21.50;61.60
41644;DHT22;44236;48.098;11.582;2023-08-06T07:51:04;21.50;61.60
41644;DHT22;44236;48.098;11.582;2023-08-06T07:53:30;21.50;61.70
41644;DHT22;44236;48.098;11.582;2023-08-06T07:55:56;21.50;61.60
41644;DHT22;44236;48.098;11.582;2023-08-06T07:58:24;21.50;61.80
41644;DHT22;44236;48.098;11.582;2023-08-06T08:00:49;21.50;62.30
41644;DHT22;44236;48.098;11.582;2023-08-06T08:03:16;21.50;62.30
41644;DHT22;44236;48.098;11.582;2023-08-06T08:05:42;21.60;62.40
41644;DHT22;44236;48.098;11.582;2023-08-06T08:08:08;21.50;61.00
41644;DHT22;44236;48.098;11.582;2023-08-06T08:10:34;21.40;61.10
41644;DHT22;44236;48.098;11.582;2023-08-06T08:13:01;21.40;61.00
41644;DHT22;44236;48.098;11.582;2023-08-06T08:15:29;21.40;60.70
41644;DHT22;44236;48.098;11.582;2023-08-06T08:17:54;21.40;60.60
41644;DHT22;44236;48.098;11.582;2023-08-06T08:20:20;21.40;61.00
41644;DHT22;44236;48.098;11.582;2023-08-06T08:22:46;21.50;60.50
41644;DHT22;44236;48.098;11.582;2023-08-06T08:25:13;21.60;60.00
41644;DHT22;44236;48.098;11.582;2023-08-06T08:27:38;21.70;60.70
41644;DHT22;44236;48.098;11.582;2023-08-06T08:30:04;21.80;60.80
41644;DHT22;44236;48.098;11.582;2023-08-06T08:32:30;21.80;61.20
41644;DHT22;44236;48.098;11.582;2023-08-06T08:34:56;21.80;60.70
41644;DHT22;44236;48.098;11.582;2023-08-06T08:37:22;21.80;59.90
41644;DHT22;44236;48.098;11.582;2023-08-06T08:39:48;21.80;60.50
41644;DHT22;44236;48.098;11.582;2023-08-06T08:42:15;21.80;59.60
41644;DHT22;44236;48.098;11.582;2023-08-06T08:44:42;21.80;60.10
41644;DHT22;44236;48.098;11.582;2023-08-06T08:47:08;21.80;59.70
41644;DHT22;44236;48.098;11.582;2023-08-06T08:49:37;21.70;57.80
41644;DHT22;44236;48.098;11.582;2023-08-06T08:52:04;21.60;56.70
41644;DHT22;44236;48.098;11.582;2023-08-06T08:54:37;21.40;56.00
41644;DHT22;44236;48.098;11.582;2023-08-06T08:57:04;21.30;55.40
41644;DHT22;44236;48.098;11.582;2023-08-06T08:59:29;21.30;56.70
41644;DHT22;44236;48.098;11.582;2023-08-06T09:01:55;21.40;57.40
41644;DHT22;44236;48.098;11.582;2023-08-06T09:04:22;21.40;57.90
41644;DHT22;44236;48.098;11.582;2023-08-06T09:06:50;21.50;58.30
41644;DHT22;44236;48.098;11.582;2023-08-06T09:09:31;21.50;58.50
41644;DHT22;44236;48.098;11.582;2023-08-06T09:12:01;21.60;58.60
41644;DHT22;44236;48.098;11.582;2023-08-06T09:14:29;21.60;58.80
41644;DHT22;44236;48.098;11.582;2023-08-06T09:16:55;21.60;58.80
41644;DHT22;44236;48.098;11.582;2023-08-06T09:19:21;21.60;58.80
41644;DHT22;44236;48.098;11.582;2023-08-06T09:21:50;21.60;59.20
41644;DHT22;44236;48.098;11.582;2023-08-06T09:24:16;21.60;59.50
41644;DHT22;44236;48.098;11.582;2023-08-06T09:26:44;21.60;59.70
41644;DHT22;44236;48.098;11.582;2023-08-06T09:29:10;21.70;60.00
41644;DHT22;44236;48.098;11.582;2023-08-06T09:31:47;21.70;60.10
41644;DHT22;44236;48.098;11.582;2023-08-06T09:34:17;21.60;60.10
41644;DHT22;44236;48.098;11.582;2023-08-06T09:36:43;21.70;60.30
41644;DHT22;44236;48.098;11.582;2023-08-06T09:39:18;21.60;60.30
41644;DHT22;44236;48.098;11.582;2023-08-06T09:41:45;21.60;60.30
41644;DHT22;44236;48.098;11.582;2023-08-06T09:44:19;21.70;60.50
41644;DHT22;44236;48.098;11.582;2023-08-06T09:46:55;21.70;60.80
41644;DHT22;44236;48.098;11.582;2023-08-06T09:49:25;21.70;60.50
41644;DHT22;44236;48.098;11.582;2023-08-06T09:51:51;21.70;60.90
41644;DHT22;44236;48.098;11.582;2023-08-06T09:54:19;21.80;60.80
41644;DHT22;44236;48.098;11.582;2023-08-06T09:56:45;21.70;60.90
41644;DHT22;44236;48.098;11.582;2023-08-06T09:59:10;21.80;61.10
41644;DHT22;44236;48.098;11.582;2023-08-06T10:01:39;21.70;60.90
41644;DHT22;44236;48.098;11.582;2023-08-06T10:04:06;21.70;60.80
41644;DHT22;44236;48.098;11.582;2023-08-06T10:06:34;21.70;60.90
41644;DHT22;44236;48.098;11.582;2023-08-06T10:09:02;21.80;61.00
41644;DHT22;44236;48.098;11.582;2023-08-06T10:11:28;21.80;61.10
41644;DHT22;44236;48.098;11.582;2023-08-06T10:14:06;21.80;61.20
41644;DHT22;44236;48.098;11.582;2023-08-06T10:16:33;21.80;61.20
41644;DHT22;44236;48.098;11.582;2023-08-06T10:18:59;21.80;61.30
41644;DHT22;44236;48.098;11.582;2023-08-06T10:21:26;21.80;61.30
41644;DHT22;44236;48.098;11.582;2023-08-06T10:23:56;21.80;61.30
41644;DHT22;44236;48.098;11.582;2023-08-06T10:26:26;21.80;61.50
41644;DHT22;44236;48.098;11.582;2023-08-06T10:28:53;21.80;61.40
41644;DHT22;44236;48.098;11.582;2023-08-06T10:31:18;21.80;61.60
41644;DHT22;44236;48.098;11.582;2023-08-06T10:33:46;21.80;61.60
41644;DHT22;44236;48.098;11.582;2023-08-06T10:36:12;21.80;61.60
41644;DHT22;44236;48.098;11.582;2023-08-06T10:38:46;21.80;61.30
41644;DHT22;44236;48.098;11.582;2023-08-06T10:41:23;21.80;61.30
41644;DHT22;44236;48.098;11.582;2023-08-06T10:43:52;21.80;61.60
41644;DHT22;44236;48.098;11.582;2023-08-06T10:46:30;21.80;61.60
41644;DHT22;44236;48.098;11.582;2023-08-06T10:48:56;21.80;61.30
41644;DHT22;44236;48.098;11.582;2023-08-06T10:51:21;21.90;61.30
41644;DHT22;44236;48.098;11.582;2023-08-06T10:53:49;21.80;61.60
41644;DHT22;44236;48.098;11.582;2023-08-06T10:56:25;21.80;61.60
41644;DHT22;44236;48.098;11.582;2023-08-06T10:58:54;21.80;61.40
41644;DHT22;44236;48.098;11.582;2023-08-06T11:01:22;21.80;61.40
41644;DHT22;44236;48.098;11.582;2023-08-06T11:03:49;21.90;61.20
41644;DHT22;44236;48.098;11.582;2023-08-06T11:06:19;21.90;61.30
41644;DHT22;44236;48.098;11.582;2023-08-06T11:08:52;21.90;61.30
41644;DHT22;44236;48.098;11.582;2023-08-06T11:11:22;21.90;61.30
41644;DHT22;44236;48.098;11.582;2023-08-06T11:13:50;21.90;61.20
41644;DHT22;44236;48.098;11.582;2023-08-06T11:16:17;21.90;61.30
41644;DHT22;44236;48.098;11.582;2023-08-06T11:18:44;21.90;61.10
41644;DHT22;44236;48.098;11.582;2023-08-06T11:21:09;21.90;60.80
41644;DHT22;44236;48.098;11.582;2023-08-06T11:23:35;21.90;61.00
41644;DHT22;44236;48.098;11.582;2023-08-06T11:26:01;21.90;61.10
41644;DHT22;44236;48.098;11.582;2023-08-06T11:28:27;21.90;60.90
41644;DHT22;44236;48.098;11.582;2023-08-06T11:30:53;21.90;61.10
41644;DHT22;44236;48.098;11.582;2023-08-06T11:33:21;21.90;61.10
41644;DHT22;44236;48.098;11.582;2023-08-06T11:35:48;21.90;61.20
41644;DHT22;44236;48.098;11.582;2023-08-06T11:38:14;21.90;61.10
41644;DHT22;44236;48.098;11.582;2023-08-06T11:40:39;21.90;61.20
41644;DHT22;44236;48.098;11.582;2023-08-06T11:43:06;21.90;60.90
41644;DHT22;44236;48.098;11.582;2023-08-06T11:45:35;21.90;61.10
41644;DHT22;44236;48.098;11.582;2023-08-06T11:48:00;21.90;61.10
41644;DHT22;44236;48.098;11.582;2023-08-06T11:50:27;21.90;61.10
41644;DHT22;44236;48.098;11.582;2023-08-06T11:53:00;21.90;61.10
41644;DHT22;44236;48.098;11.582;2023-08-06T11:55:28;21.90;61.10
41644;DHT22;44236;48.098;11.582;2023-08-06T11:57:54;21.90;61.00
41644;DHT22;44236;48.098;11.582;2023-08-06T12:00:20;21.90;60.90
41644;DHT22;44236;48.098;11.582;2023-08-06T12:02:48;21.90;61.00
41644;DHT22;44236;48.098;11.582;2023-08-06T12:05:18;21.90;60.90
41644;DHT22;44236;48.098;11.582;2023-08-06T12:07:54;21.90;60.90
41644;DHT22;44236;48.098;11.582;2023-08-06T12:10:21;21.90;60.90
41644;DHT22;44236;48.098;11.582;2023-08-06T12:12:47;21.90;60.80
41644;DHT22;44236;48.098;11.582;2023-08-06T12:15:13;21.90;60.80
41644;DHT22;44236;48.098;11.582;2023-08-06T12:17:39;21.90;60.90
41644;DHT22;44236;48.098;11.582;2023-08-06T12:20:06;21.90;60.80
41644;DHT22;44236;48.098;11.582;2023-08-06T12:22:33;21.90;60.80
41644;DHT22;44236;48.098;11.582;2023-08-06T12:25:04;21.90;60.90
41644;DHT22;44236;48.098;11.582;2023-08-06T12:27:36;21.90;60.80
41644;DHT22;44236;48.098;11.582;2023-08-06T12:30:02;21.90;60.80
41644;DHT22;44236;48.098;11.582;2023-08-06T12:32:29;21.90;60.80
41644;DHT22;44236;48.098;11.582;2023-08-06T12:34:55;21.90;60.80
41644;DHT22;44236;48.098;11.582;2023-08-06T12:37:20;21.90;60.80
41644;DHT22;44236;48.098;11.582;2023-08-06T12:39:47;21.90;60.70
41644;DHT22;44236;48.098;11.582;2023-08-06T12:42:12;21.90;60.70
41644;DHT22;44236;48.098;11.582;2023-08-06T12:44:38;21.90;60.70
41644;DHT22;44236;48.098;11.582;2023-08-06T12:47:04;21.90;60.70
41644;DHT22;44236;48.098;11.582;2023-08-06T12:49:29;21.90;60.60
41644;DHT22;44236;48.098;11.582;2023-08-06T12:51:57;21.90;60.70
41644;DHT22;44236;48.098;11.582;2023-08-06T12:54:25;21.90;60.70
41644;DHT22;44236;48.098;11.582;2023-08-06T12:56:50;21.90;60.70
41644;DHT22;44236;48.098;11.582;2023-08-06T12:59:17;21.90;60.70
41644;DHT22;44236;48.098;11.582;2023-08-06T13:01:43;21.90;60.70
41644;DHT22;44236;48.098;11.582;2023-08-06T13:04:09;21.90;60.70
41644;DHT22;44236;48.098;11.582;2023-08-06T13:06:36;21.90;60.70
41644;DHT22;44236;48.098;11.582;2023-08-06T13:09:12;21.90;60.70
41644;DHT22;44236;48.098;11.582;2023-08-06T13:11:39;21.90;60.70
41644;DHT22;44236;48.098;11.582;2023-08-06T13:14:13;21.90;60.70
41644;DHT22;44236;48.098;11.582;2023-08-06T13:16:41;21.90;60.70
41644;DHT22;44236;48.098;11.582;2023-08-06T13:19:07;21.90;60.80
41644;DHT22;44236;48.098;11.582;2023-08-06T13:21:35;21.90;60.70
41644;DHT22;44236;48.098;11.582;2023-08-06T13:24:04;21.90;60.70
41644;DHT22;44236;48.098;11.582;2023-08-06T13:26:30;21.90;60.70
41644;DHT22;44236;48.098;11.582;2023-08-06T13:29:00;21.90;60.70
41644;DHT22;44236;48.098;11.582;2023-08-06T13:31:26;21.90;60.70
41644;DHT22;44236;48.098;11.582;2023-08-06T13:33:52;21.90;60.70
41644;DHT22;44236;48.098;11.582;2023-08-06T13:36:21;21.90;60.70
41644;DHT22;44236;48.098;11.582;2023-08-06T13:38:47;21.90;60.70
41644;DHT22;44236;48.098;11.582;2023-08-06T13:41:12;21.90;60.70
41644;DHT22;44236;48.098;11.582;2023-08-06T13:43:39;21.90;60.70
41644;DHT22;44236;48.098;11.582;2023-08-06T13:46:04;21.90;60.70
41644;DHT22;44236;48.098;11.582;2023-08-06T13:48:30;21.90;60.70
41644;DHT22;44236;48.098;11.582;2023-08-06T13:50:55;21.90;61.20
41644;DHT22;44236;48.098;11.582;2023-08-06T13:53:21;21.90;60.70
41644;DHT22;44236;48.098;11.582;2023-08-06T13:55:47;21.90;60.70
41644;DHT22;44236;48.098;11.582;2023-08-06T13:58:12;21.90;60.70
41644;DHT22;44236;48.098;11.582;2023-08-06T14:00:38;21.90;60.70
41644;DHT22;44236;48.098;11.582;2023-08-06T14:03:03;21.90;60.60
41644;DHT22;44236;48.098;11.582;2023-08-06T14:05:29;21.90;60.60
41644;DHT22;44236;48.098;11.582;2023-08-06T14:07:54;21.90;60.60
41644;DHT22;44236;48.098;11.582;2023-08-06T14:10:20;21.90;60.50
41644;DHT22;44236;48.098;11.582;2023-08-06T14:12:46;21.90;60.50
41644;DHT22;44236;48.098;11.582;2023-08-06T14:15:11;21.90;60.50
41644;DHT22;44236;48.098;11.582;2023-08-06T14:17:37;21.90;60.50
41644;DHT22;44236;48.098;11.582;2023-08-06T14:20:03;21.90;60.60
41644;DHT22;44236;48.098;11.582;2023-08-06T14:22:30;21.90;60.80
41644;DHT22;44236;48.098;11.582;2023-08-06T14:24:57;21.90;60.80
41644;DHT22;44236;48.098;11.582;2023-08-06T14:27:23;21.90;60.80
41644;DHT22;44236;48.098;11.582;2023-08-06T14:29:48;21.90;60.80
41644;DHT22;44236;48.098;11.582;2023-08-06T14:32:14;21.90;61.00
41644;DHT22;44236;48.098;11.582;2023-08-06T14:34:43;21.90;61.30
41644;DHT22;44236;48.098;11.582;2023-08-06T14:37:09;21.90;61.30
41644;DHT22;44236;48.098;11.582;2023-08-06T14:39:34;21.90;61.40
41644;DHT22;44236;48.098;11.582;2023-08-06T14:42:00;22.00;61.70
41644;DHT22;44236;48.098;11.582;2023-08-06T14:44:25;21.80;61.60
41644;DHT22;44236;48.098;11.582;2023-08-06T14:46:51;21.80;60.70
41644;DHT22;44236;48.098;11.582;2023-08-06T14:49:16;21.80;60.60
41644;DHT22;44236;48.098;11.582;2023-08-06T14:51:42;21.80;60.60
41644;DHT22;44236;48.098;11.582;2023-08-06T14:54:08;21.90;60.50
41644;DHT22;44236;48.098;11.582;2023-08-06T14:56:33;22.00;60.40
41644;DHT22;44236;48.098;11.582;2023-08-06T14:58:59;22.00;60.90
41644;DHT22;44236;48.098;11.582;2023-08-06T15:01:24;22.00;60.90
41644;DHT22;44236;48.098;11.582;2023-08-06T15:03:50;22.10;60.60
41644;DHT22;44236;48.098;11.582;2023-08-06T15:06:15;22.40;60.80
41644;DHT22;44236;48.098;11.582;2023-08-06T15:08:41;22.10;60.70
41644;DHT22;44236;48.098;11.582;2023-08-06T15:11:09;22.20;60.40
41644;DHT22;44236;48.098;11.582;2023-08-06T15:13:35;22.30;60.60
41644;DHT22;44236;48.098;11.582;2023-08-06T15:16:00;22.30;60.60
41644;DHT22;44236;48.098;11.582;2023-08-06T15:18:26;22.30;60.50
41644;DHT22;44236;48.098;11.582;2023-08-06T15:20:52;22.30;60.50
41644;DHT22;44236;48.098;11.582;2023-08-06T15:23:17;22.40;60.30
41644;DHT22;44236;48.098;11.582;2023-08-06T15:25:43;22.40;60.10
41644;DHT22;44236;48.098;11.582;2023-08-06T15:28:08;22.40;60.00
41644;DHT22;44236;48.098;11.582;2023-08-06T15:30:34;22.40;60.10
41644;DHT22;44236;48.098;11.582;2023-08-06T15:32:59;22.50;59.80
41644;DHT22;44236;48.098;11.582;2023-08-06T15:35:25;22.50;59.90
41644;DHT22;44236;48.098;11.582;2023-08-06T15:37:51;22.50;59.90
41644;DHT22;44236;48.098;11.582;2023-08-06T15:40:16;22.50;59.80
41644;DHT22;44236;48.098;11.582;2023-08-06T15:42:42;22.50;59.80
41644;DHT22;44236;48.098;11.582;2023-08-06T15:45:08;22.60;59.60
41644;DHT22;44236;48.098;11.582;2023-08-06T15:47:34;22.60;59.60
41644;DHT22;44236;48.098;11.582;2023-08-06T15:50:07;22.60;59.50
41644;DHT22;44236;48.098;11.582;2023-08-06T15:52:33;22.60;59.40
41644;DHT22;44236;48.098;11.582;2023-08-06T15:54:59;22.60;59.60
41644;DHT22;44236;48.098;11.582;2023-08-06T15:57:31;22.60;59.30
41644;DHT22;44236;48.098;11.582;2023-08-06T15:59:56;22.60;59.20
41644;DHT22;44236;48.098;11.582;2023-08-06T16:02:22;22.60;59.20
41644;DHT22;44236;48.098;11.582;2023-08-06T16:04:49;22.70;59.70
41644;DHT22;44236;48.098;11.582;2023-08-06T16:07:15;22.70;59.50
41644;DHT22;44236;48.098;11.582;2023-08-06T16:09:40;22.80;59.70
41644;DHT22;44236;48.098;11.582;2023-08-06T16:12:06;22.80;59.90
41644;DHT22;44236;48.098;11.582;2023-08-06T16:14:32;22.80;60.30
41644;DHT22;44236;48.098;11.582;2023-08-06T16:16:57;22.80;60.40
41644;DHT22;44236;48.098;11.582;2023-08-06T16:19:23;22.80;60.50
41644;DHT22;44236;48.098;11.582;2023-08-06T16:21:48;22.80;60.50
41644;DHT22;44236;48.098;11.582;2023-08-06T16:24:14;22.90;60.60
41644;DHT22;44236;48.098;11.582;2023-08-06T16:26:40;22.90;60.40
41644;DHT22;44236;48.098;11.582;2023-08-06T16:29:05;22.90;60.80
41644;DHT22;44236;48.098;11.582;2023-08-06T16:31:31;22.90;60.80
41644;DHT22;44236;48.098;11.582;2023-08-06T16:33:56;22.90;60.90
41644;DHT22;44236;48.098;11.582;2023-08-06T16:36:22;22.90;60.90
41644;DHT22;44236;48.098;11.582;2023-08-06T16:38:47;23.00;60.70
41644;DHT22;44236;48.098;11.582;2023-08-06T16:41:14;22.90;60.60
41644;DHT22;44236;48.098;11.582;2023-08-06T16:43:40;22.90;59.90
41644;DHT22;44236;48.098;11.582;2023-08-06T16:46:06;22.90;60.50
41644;DHT22;44236;48.098;11.582;2023-08-06T16:48:31;23.00;60.50
41644;DHT22;44236;48.098;11.582;2023-08-06T16:51:02;22.90;60.30
41644;DHT22;44236;48.098;11.582;2023-08-06T16:53:28;22.90;60.40
41644;DHT22;44236;48.098;11.582;2023-08-06T16:55:55;22.90;60.30
41644;DHT22;44236;48.098;11.582;2023-08-06T16:58:22;23.00;60.00
41644;DHT22;44236;48.098;11.582;2023-08-06T17:00:48;23.00;59.40
41644;DHT22;44236;48.098;11.582;2023-08-06T17:03:16;23.00;58.60
41644;DHT22;44236;48.098;11.582;2023-08-06T17:05:43;23.00;59.30
41644;DHT22;44236;48.098;11.582;2023-08-06T17:08:08;23.00;59.10
41644;DHT22;44236;48.098;11.582;2023-08-06T17:10:34;23.00;58.90
41644;DHT22;44236;48.098;11.582;2023-08-06T17:13:00;23.00;59.00
41644;DHT22;44236;48.098;11.582;2023-08-06T17:15:26;23.00;59.00
41644;DHT22;44236;48.098;11.582;2023-08-06T17:17:52;23.00;59.00
41644;DHT22;44236;48.098;11.582;2023-08-06T17:20:17;23.00;59.00
41644;DHT22;44236;48.098;11.582;2023-08-06T17:22:43;22.90;58.70
41644;DHT22;44236;48.098;11.582;2023-08-06T17:25:09;23.00;58.60
41644;DHT22;44236;48.098;11.582;2023-08-06T17:27:34;22.90;58.50
41644;DHT22;44236;48.098;11.582;2023-08-06T17:30:00;22.90;58.40
41644;DHT22;44236;48.098;11.582;2023-08-06T17:32:26;23.00;58.40
41644;DHT22;44236;48.098;11.582;2023-08-06T17:34:51;22.90;58.50
41644;DHT22;44236;48.098;11.582;2023-08-06T17:37:18;22.90;58.40
41644;DHT22;44236;48.098;11.582;2023-08-06T17:39:43;22.90;58.50
41644;DHT22;44236;48.098;11.582;2023-08-06T17:42:09;22.90;58.50
41644;DHT22;44236;48.098;11.582;2023-08-06T17:44:39;22.90;58.40
41644;DHT22;44236;48.098;11.582;2023-08-06T17:47:05;22.90;58.50
41644;DHT22;44236;48.098;11.582;2023-08-06T17:49:31;22.90;58.40
41644;DHT22;44236;48.098;11.582;2023-08-06T17:51:57;22.90;58.40
41644;DHT22;44236;48.098;11.582;2023-08-06T17:54:22;22.90;58.40
41644;DHT22;44236;48.098;11.582;2023-08-06T17:56:48;22.90;58.40
41644;DHT22;44236;48.098;11.582;2023-08-06T17:59:13;22.90;58.50
41644;DHT22;44236;48.098;11.582;2023-08-06T18:01:39;22.90;58.30
41644;DHT22;44236;48.098;11.582;2023-08-06T18:04:05;22.90;58.10
41644;DHT22;44236;48.098;11.582;2023-08-06T18:06:30;22.90;57.90
41644;DHT22;44236;48.098;11.582;2023-08-06T18:08:56;22.90;58.20
41644;DHT22;44236;48.098;11.582;2023-08-06T18:11:21;22.90;58.00
41644;DHT22;44236;48.098;11.582;2023-08-06T18:13:47;22.90;58.00
41644;DHT22;44236;48.098;11.582;2023-08-06T18:16:12;22.90;58.10
41644;DHT22;44236;48.098;11.582;2023-08-06T18:18:38;22.90;57.90
41644;DHT22;44236;48.098;11.582;2023-08-06T18:21:04;23.00;56.00
41644;DHT22;44236;48.098;11.582;2023-08-06T18:23:29;22.80;54.80
41644;DHT22;44236;48.098;11.582;2023-08-06T18:25:55;22.30;54.60
41644;DHT22;44236;48.098;11.582;2023-08-06T18:28:24;22.10;54.80
41644;DHT22;44236;48.098;11.582;2023-08-06T18:30:51;22.00;55.50
41644;DHT22;44236;48.098;11.582;2023-08-06T18:33:17;21.90;55.10
41644;DHT22;44236;48.098;11.582;2023-08-06T18:35:43;21.60;55.30
41644;DHT22;44236;48.098;11.582;2023-08-06T18:38:08;21.40;55.30
41644;DHT22;44236;48.098;11.582;2023-08-06T18:40:34;21.30;56.00
41644;DHT22;44236;48.098;11.582;2023-08-06T18:43:00;21.20;56.00
41644;DHT22;44236;48.098;11.582;2023-08-06T18:45:26;21.10;55.90
41644;DHT22;44236;48.098;11.582;2023-08-06T18:47:51;21.00;56.20
41644;DHT22;44236;48.098;11.582;2023-08-06T18:50:17;21.00;55.80
41644;DHT22;44236;48.098;11.582;2023-08-06T18:52:44;21.00;56.10
41644;DHT22;44236;48.098;11.582;2023-08-06T18:55:10;21.10;56.00
41644;DHT22;44236;48.098;11.582;2023-08-06T18:57:36;21.00;55.70
41644;DHT22;44236;48.098;11.582;2023-08-06T19:00:02;21.00;55.90
41644;DHT22;44236;48.098;11.582;2023-08-06T19:02:29;20.80;55.60
41644;DHT22;44236;48.098;11.582;2023-08-06T19:04:55;20.80;55.90
41644;DHT22;44236;48.098;11.582;2023-08-06T19:07:23;20.80;56.20
41644;DHT22;44236;48.098;11.582;2023-08-06T19:09:49;20.80;55.70
41644;DHT22;44236;48.098;11.582;2023-08-06T19:12:15;20.80;55.40
41644;DHT22;44236;48.098;11.582;2023-08-06T19:14:41;20.70;55.20
41644;DHT22;44236;48.098;11.582;2023-08-06T19:17:07;20.60;55.00
41644;DHT22;44236;48.098;11.582;2023-08-06T19:19:34;20.50;55.80
41644;DHT22;44236;48.098;11.582;2023-08-06T19:21:59;20.40;55.40
41644;DHT22;44236;48.098;11.582;2023-08-06T19:24:25;20.30;55.70
41644;DHT22;44236;48.098;11.582;2023-08-06T19:26:50;20.20;55.80
41644;DHT22;44236;48.098;11.582;2023-08-06T19:29:16;20.10;55.60
41644;DHT22;44236;48.098;11.582;2023-08-06T19:31:41;20.10;56.10
41644;DHT22;44236;48.098;11.582;2023-08-06T19:34:08;20.10;55.60
41644;DHT22;44236;48.098;11.582;2023-08-06T19:36:34;20.10;56.20
41644;DHT22;44236;48.098;11.582;2023-08-06T19:38:59;20.10;55.90
41644;DHT22;44236;48.098;11.582;2023-08-06T19:41:25;20.10;55.50
41644;DHT22;44236;48.098;11.582;2023-08-06T19:43:50;20.20;55.10
41644;DHT22;44236;48.098;11.582;2023-08-06T19:46:16;20.20;54.90
41644;DHT22;44236;48.098;11.582;2023-08-06T19:48:41;20.20;54.80
41644;DHT22;44236;48.098;11.582;2023-08-06T19:51:07;20.30;54.40
41644;DHT22;44236;48.098;11.582;2023-08-06T19:53:34;20.20;54.50
41644;DHT22;44236;48.098;11.582;2023-08-06T19:56:03;20.30;54.60
41644;DHT22;44236;48.098;11.582;2023-08-06T19:58:30;20.20;54.60
41644;DHT22;44236;48.098;11.582;2023-08-06T20:00:57;20.30;54.80
41644;DHT22;44236;48.098;11.582;2023-08-06T20:03:24;20.30;54.70
41644;DHT22;44236;48.098;11.582;2023-08-06T20:05:50;20.40;55.10
41644;DHT22;44236;48.098;11.582;2023-08-06T20:08:17;20.40;55.10
41644;DHT22;44236;48.098;11.582;2023-08-06T20:10:46;20.50;55.20
41644;DHT22;44236;48.098;11.582;2023-08-06T20:13:13;20.50;55.20
41644;DHT22;44236;48.098;11.582;2023-08-06T20:15:39;20.50;55.30
41644;DHT22;44236;48.098;11.582;2023-08-06T20:18:05;20.60;55.50
41644;DHT22;44236;48.098;11.582;2023-08-06T20:20:30;20.60;55.40
41644;DHT22;44236;48.098;11.582;2023-08-06T20:22:56;20.60;55.70
41644;DHT22;44236;48.098;11.582;2023-08-06T20:25:21;20.70;56.20
41644;DHT22;44236;48.098;11.582;2023-08-06T20:27:47;20.70;55.70
41644;DHT22;44236;48.098;11.582;2023-08-06T20:30:13;20.70;55.90
41644;DHT22;44236;48.098;11.582;2023-08-06T20:32:38;20.70;56.00
41644;DHT22;44236;48.098;11.582;2023-08-06T20:35:05;20.80;56.90
41644;DHT22;44236;48.098;11.582;2023-08-06T20:37:31;20.90;56.30
41644;DHT22;44236;48.098;11.582;2023-08-06T20:39:57;20.90;56.60
41644;DHT22;44236;48.098;11.582;2023-08-06T20:42:23;21.00;56.60
41644;DHT22;44236;48.098;11.582;2023-08-06T20:44:49;21.10;56.70